sensor_id;sensor_type;location;lat;lon;timestamp;temperature;humidity
70820;DHT22;58439;51.046;13.692;2023-04-24T00:02:10;12.10;99.90
70820;DHT22;58439;51.046;13.692;2023-04-24T00:04:38;12.10;99.90
70820;DHT22;58439;51.046;13.692;2023-04-24T00:07:08;12.10;99.90
70820;DHT22;58439;51.046;13.692;2023-04-24T00:09:35;12.10;99.90
70820;DHT22;58439;51.046;13.692;2023-04-24T00:17:21;12.20;99.90
70820;DHT22;58439;51.046;13.692;2023-04-24T00:19:49;12.20;99.90
70820;DHT22;58439;51.046;13.692;2023-04-24T00:22:18;12.20;99.90
70820;DHT22;58439;51.046;13.692;2023-04-24T00:24:47;12.20;99.90
70820;DHT22;58439;51.046;13.692;2023-04-24T00:27:14;12.20;99.90
70820;DHT22;58439;51.046;13.692;2023-04-24T00:29:41;12.20;99.90
70820;DHT22;58439;51.046;13.692;2023-04-24T00:32:09;12.20;99.90
70820;DHT22;58439;51.046;13.692;2023-04-24T00:34:36;12.30;99.90
70820;DHT22;58439;51.046;13.692;2023-04-24T00:37:04;12.30;99.90
70820;DHT22;58439;51.046;13.692;2023-04-24T00:39:54;12.30;99.90
70820;DHT22;58439;51.046;13.692;2023-04-24T00:42:30;12.30;99.90
70820;DHT22;58439;51.046;13.692;2023-04-24T00:44:57;12.30;99.90
70820;DHT22;58439;51.046;13.692;2023-04-24T00:47:25;12.30;99.90
70820;DHT22;58439;51.046;13.692;2023-04-24T00:50:03;12.30;99.90
70820;DHT22;58439;51.046;13.692;2023-04-24T00:52:32;12.30;99.90
70820;DHT22;58439;51.046;13.692;2023-04-24T00:55:00;12.40;99.90
70820;DHT22;58439;51.046;13.692;2023-04-24T00:57:27;12.40;99.90
70820;DHT22;58439;51.046;13.692;2023-04-24T00:59:55;12.30;99.90
70820;DHT22;58439;51.046;13.692;2023-04-24T01:02:22;12.30;99.90
70820;DHT22;58439;51.046;13.692;2023-04-24T01:04:55;12.30;99.90
70820;DHT22;58439;51.046;13.692;2023-04-24T01:07:26;12.30;99.90
70820;DHT22;58439;51.046;13.692;2023-04-24T01:09:53;12.30;99.90
70820;DHT22;58439;51.046;13.692;2023-04-24T01:12:21;12.20;99.90
70820;DHT22;58439;51.046;13.692;2023-04-24T01:14:48;12.20;99.90
70820;DHT22;58439;51.046;13.692;2023-04-24T01:17:16;12.20;99.90
70820;DHT22;58439;51.046;13.692;2023-04-24T01:19:43;12.10;99.90
70820;DHT22;58439;51.046;13.692;2023-04-24T01:22:15;12.10;99.90
70820;DHT22;58439;51.046;13.692;2023-04-24T01:24:43;12.10;99.90
70820;DHT22;58439;51.046;13.692;2023-04-24T01:27:12;12.10;99.90
70820;DHT22;58439;51.046;13.692;2023-04-24T01:29:39;12.10;99.90
70820;DHT22;58439;51.046;13.692;2023-04-24T01:32:09;12.10;99.90
70820;DHT22;58439;51.046;13.692;2023-04-24T01:34:37;12.10;99.90
70820;DHT22;58439;51.046;13.692;2023-04-24T01:37:05;12.10;99.90
70820;DHT22;58439;51.046;13.692;2023-04-24T01:39:32;12.10;99.90
70820;DHT22;58439;51.046;13.692;2023-04-24T01:42:04;12.10;99.90
70820;DHT22;58439;51.046;13.692;2023-04-24T01:44:40;12.20;99.90
70820;DHT22;58439;51.046;13.692;2023-04-24T01:47:09;12.20;99.90
70820;DHT22;58439;51.046;13.692;2023-04-24T01:49:38;12.20;99.90
70820;DHT22;58439;51.046;13.692;2023-04-24T01:53:37;12.20;99.90
70820;DHT22;58439;51.046;13.692;2023-04-24T01:57:04;12.20;99.90
70820;DHT22;58439;51.046;13.692;2023-04-24T02:00:22;12.20;99.90
70820;DHT22;58439;51.046;13.692;2023-04-24T02:04:10;12.20;99.90
70820;DHT22;58439;51.046;13.692;2023-04-24T02:07:56;12.20;99.90
70820;DHT22;58439;51.046;13.692;2023-04-24T02:15:34;12.30;99.90
70820;DHT22;58439;51.046;13.692;2023-04-24T02:18:41;12.30;99.90
70820;DHT22;58439;51.046;13.692;2023-04-24T02:21:57;12.20;99.90
70820;DHT22;58439;51.046;13.692;2023-04-24T02:24:24;12.30;99.90
70820;DHT22;58439;51.046;13.692;2023-04-24T02:26:51;12.20;99.90
70820;DHT22;58439;51.046;13.692;2023-04-24T02:29:19;12.30;99.90
70820;DHT22;58439;51.046;13.692;2023-04-24T02:31:49;12.30;99.90
70820;DHT22;58439;51.046;13.692;2023-04-24T02:34:16;12.30;99.90
70820;DHT22;58439;51.046;13.692;2023-04-24T02:36:43;12.30;99.90
70820;DHT22;58439;51.046;13.692;2023-04-24T02:39:11;12.30;99.90
70820;DHT22;58439;51.046;13.692;2023-04-24T02:41:39;12.20;99.90
70820;DHT22;58439;51.046;13.692;2023-04-24T02:44:06;12.20;99.90
70820;DHT22;58439;51.046;13.692;2023-04-24T02:46:33;12.20;99.90
70820;DHT22;58439;51.046;13.692;2023-04-24T02:49:00;12.20;99.90
70820;DHT22;58439;51.046;13.692;2023-04-24T02:51:28;12.10;99.90
70820;DHT22;58439;51.046;13.692;2023-04-24T02:53:57;12.10;99.90
70820;DHT22;58439;51.046;13.692;2023-04-24T02:56:26;12.10;99.90
70820;DHT22;58439;51.046;13.692;2023-04-24T03:00:28;12.00;99.90
70820;DHT22;58439;51.046;13.692;2023-04-24T03:08:46;12.00;99.90
70820;DHT22;58439;51.046;13.692;2023-04-24T03:12:24;12.00;99.90
70820;DHT22;58439;51.046;13.692;2023-04-24T03:15:19;12.00;99.90
70820;DHT22;58439;51.046;13.692;2023-04-24T03:22:46;12.00;99.90
70820;DHT22;58439;51.046;13.692;2023-04-24T03:25:57;12.00;99.90
70820;DHT22;58439;51.046;13.692;2023-04-24T03:29:57;12.00;99.90
70820;DHT22;58439;51.046;13.692;2023-04-24T03:32:53;12.00;99.90
70820;DHT22;58439;51.046;13.692;2023-04-24T03:35:25;12.00;99.90
70820;DHT22;58439;51.046;13.692;2023-04-24T03:37:57;12.10;99.90
70820;DHT22;58439;51.046;13.692;2023-04-24T03:40:44;12.10;99.90
70820;DHT22;58439;51.046;13.692;2023-04-24T03:43:35;12.10;99.90
70820;DHT22;58439;51.046;13.692;2023-04-24T03:46:04;12.10;99.90
70820;DHT22;58439;51.046;13.692;2023-04-24T03:48:35;12.20;99.90
70820;DHT22;58439;51.046;13.692;2023-04-24T03:51:05;12.20;99.90
70820;DHT22;58439;51.046;13.692;2023-04-24T03:53:34;12.30;99.90
70820;DHT22;58439;51.046;13.692;2023-04-24T03:56:01;12.40;99.90
70820;DHT22;58439;51.046;13.692;2023-04-24T03:58:29;12.50;99.90
70820;DHT22;58439;51.046;13.692;2023-04-24T04:00:57;12.60;99.90
70820;DHT22;58439;51.046;13.692;2023-04-24T04:03:48;12.70;99.90
70820;DHT22;58439;51.046;13.692;2023-04-24T04:06:19;12.80;99.90
70820;DHT22;58439;51.046;13.692;2023-04-24T04:08:50;12.80;99.90
70820;DHT22;58439;51.046;13.692;2023-04-24T04:11:17;12.80;99.90
70820;DHT22;58439;51.046;13.692;2023-04-24T04:13:45;12.90;99.90
70820;DHT22;58439;51.046;13.692;2023-04-24T04:16:16;12.90;99.90
70820;DHT22;58439;51.046;13.692;2023-04-24T04:18:46;13.00;99.90
70820;DHT22;58439;51.046;13.692;2023-04-24T04:25:29;13.00;99.90
70820;DHT22;58439;51.046;13.692;2023-04-24T04:28:35;13.00;99.90
70820;DHT22;58439;51.046;13.692;2023-04-24T04:31:44;13.00;99.90
70820;DHT22;58439;51.046;13.692;2023-04-24T04:34:44;13.00;99.90
70820;DHT22;58439;51.046;13.692;2023-04-24T04:37:12;13.00;99.90
70820;DHT22;58439;51.046;13.692;2023-04-24T04:39:55;13.00;99.90
70820;DHT22;58439;51.046;13.692;2023-04-24T04:42:26;13.00;99.90
70820;DHT22;58439;51.046;13.692;2023-04-24T04:44:54;13.00;99.90
70820;DHT22;58439;51.046;13.692;2023-04-24T04:47:33;13.00;99.90
70820;DHT22;58439;51.046;13.692;2023-04-24T04:50:02;13.10;99.90
70820;DHT22;58439;51.046;13.692;2023-04-24T04:52:32;13.10;99.90
70820;DHT22;58439;51.046;13.692;2023-04-24T04:55:10;13.10;99.90
70820;DHT22;58439;51.046;13.692;2023-04-24T04:58:00;13.20;99.90
70820;DHT22;58439;51.046;13.692;2023-04-24T05:00:28;13.30;99.80
70820;DHT22;58439;51.046;13.692;2023-04-24T05:03:13;13.30;99.80
70820;DHT22;58439;51.046;13.692;2023-04-24T05:06:09;13.40;99.60
70820;DHT22;58439;51.046;13.692;2023-04-24T05:08:40;13.50;99.40
70820;DHT22;58439;51.046;13.692;2023-04-24T05:11:12;13.50;99.10
70820;DHT22;58439;51.046;13.692;2023-04-24T05:13:40;13.60;98.90
70820;DHT22;58439;51.046;13.692;2023-04-24T05:16:12;13.60;98.70
70820;DHT22;58439;51.046;13.692;2023-04-24T05:18:40;13.70;98.50
70820;DHT22;58439;51.046;13.692;2023-04-24T05:21:10;13.70;98.50
70820;DHT22;58439;51.046;13.692;2023-04-24T05:23:39;13.70;98.20
70820;DHT22;58439;51.046;13.692;2023-04-24T05:26:13;13.70;98.10
70820;DHT22;58439;51.046;13.692;2023-04-24T05:28:42;13.80;98.00
70820;DHT22;58439;51.046;13.692;2023-04-24T05:31:11;13.80;97.20
70820;DHT22;58439;51.046;13.692;2023-04-24T05:33:39;13.80;97.00
70820;DHT22;58439;51.046;13.692;2023-04-24T05:36:06;13.80;96.90
70820;DHT22;58439;51.046;13.692;2023-04-24T05:38:33;13.90;96.80
70820;DHT22;58439;51.046;13.692;2023-04-24T05:41:01;13.90;96.40
70820;DHT22;58439;51.046;13.692;2023-04-24T05:43:31;14.00;96.20
70820;DHT22;58439;51.046;13.692;2023-04-24T05:45:59;14.00;96.00
70820;DHT22;58439;51.046;13.692;2023-04-24T05:48:26;14.00;95.80
70820;DHT22;58439;51.046;13.692;2023-04-24T05:50:53;14.10;95.80
70820;DHT22;58439;51.046;13.692;2023-04-24T05:53:23;14.20;95.60
70820;DHT22;58439;51.046;13.692;2023-04-24T05:55:50;14.30;95.50
70820;DHT22;58439;51.046;13.692;2023-04-24T05:58:18;14.30;95.20
70820;DHT22;58439;51.046;13.692;2023-04-24T06:00:46;14.40;94.50
70820;DHT22;58439;51.046;13.692;2023-04-24T06:03:14;14.40;94.20
70820;DHT22;58439;51.046;13.692;2023-04-24T06:05:42;14.50;93.90
70820;DHT22;58439;51.046;13.692;2023-04-24T06:08:09;14.50;93.60
70820;DHT22;58439;51.046;13.692;2023-04-24T06:10:39;14.50;93.30
70820;DHT22;58439;51.046;13.692;2023-04-24T06:13:08;14.50;92.90
70820;DHT22;58439;51.046;13.692;2023-04-24T06:15:38;14.60;92.90
70820;DHT22;58439;51.046;13.692;2023-04-24T06:18:25;14.70;92.60
70820;DHT22;58439;51.046;13.692;2023-04-24T06:20:53;14.70;91.90
70820;DHT22;58439;51.046;13.692;2023-04-24T06:23:23;14.80;91.80
70820;DHT22;58439;51.046;13.692;2023-04-24T06:25:50;14.90;90.70
70820;DHT22;58439;51.046;13.692;2023-04-24T06:28:18;15.00;89.40
70820;DHT22;58439;51.046;13.692;2023-04-24T06:30:45;15.00;88.10
70820;DHT22;58439;51.046;13.692;2023-04-24T06:33:12;15.00;86.80
70820;DHT22;58439;51.046;13.692;2023-04-24T06:35:44;15.00;86.70
70820;DHT22;58439;51.046;13.692;2023-04-24T06:38:12;15.00;86.40
70820;DHT22;58439;51.046;13.692;2023-04-24T06:40:39;15.00;86.60
70820;DHT22;58439;51.046;13.692;2023-04-24T06:43:06;15.10;86.50
70820;DHT22;58439;51.046;13.692;2023-04-24T06:45:33;15.10;86.00
70820;DHT22;58439;51.046;13.692;2023-04-24T06:48:00;15.20;86.50
70820;DHT22;58439;51.046;13.692;2023-04-24T06:50:28;15.30;85.60
70820;DHT22;58439;51.046;13.692;2023-04-24T06:52:55;15.50;85.30
70820;DHT22;58439;51.046;13.692;2023-04-24T06:55:22;15.60;83.30
70820;DHT22;58439;51.046;13.692;2023-04-24T06:57:49;15.60;82.10
70820;DHT22;58439;51.046;13.692;2023-04-24T07:00:16;15.80;79.50
70820;DHT22;58439;51.046;13.692;2023-04-24T07:02:43;15.90;78.80
70820;DHT22;58439;51.046;13.692;2023-04-24T07:05:11;15.90;77.30
70820;DHT22;58439;51.046;13.692;2023-04-24T07:07:39;16.00;77.60
70820;DHT22;58439;51.046;13.692;2023-04-24T07:10:07;16.00;76.30
70820;DHT22;58439;51.046;13.692;2023-04-24T07:12:35;16.00;74.50
70820;DHT22;58439;51.046;13.692;2023-04-24T07:15:03;16.00;73.50
70820;DHT22;58439;51.046;13.692;2023-04-24T07:17:31;16.00;73.60
70820;DHT22;58439;51.046;13.692;2023-04-24T07:19:59;16.00;72.80
70820;DHT22;58439;51.046;13.692;2023-04-24T07:22:26;15.90;71.80
70820;DHT22;58439;51.046;13.692;2023-04-24T07:24:56;15.80;71.50
70820;DHT22;58439;51.046;13.692;2023-04-24T07:27:25;15.70;72.70
70820;DHT22;58439;51.046;13.692;2023-04-24T07:29:52;15.70;73.20
70820;DHT22;58439;51.046;13.692;2023-04-24T07:32:19;15.80;75.10
70820;DHT22;58439;51.046;13.692;2023-04-24T07:34:49;15.90;74.10
70820;DHT22;58439;51.046;13.692;2023-04-24T07:37:17;16.00;73.70
70820;DHT22;58439;51.046;13.692;2023-04-24T07:39:44;16.20;71.90
70820;DHT22;58439;51.046;13.692;2023-04-24T07:42:14;16.20;68.60
70820;DHT22;58439;51.046;13.692;2023-04-24T07:44:41;16.20;65.70
70820;DHT22;58439;51.046;13.692;2023-04-24T07:47:08;16.20;65.70
70820;DHT22;58439;51.046;13.692;2023-04-24T07:49:36;16.20;67.10
70820;DHT22;58439;51.046;13.692;2023-04-24T07:52:03;16.20;68.20
70820;DHT22;58439;51.046;13.692;2023-04-24T07:54:30;16.20;67.90
70820;DHT22;58439;51.046;13.692;2023-04-24T07:56:57;16.30;68.50
70820;DHT22;58439;51.046;13.692;2023-04-24T07:59:24;16.40;67.80
70820;DHT22;58439;51.046;13.692;2023-04-24T08:01:51;16.40;66.10
70820;DHT22;58439;51.046;13.692;2023-04-24T08:04:19;16.50;65.40
70820;DHT22;58439;51.046;13.692;2023-04-24T08:06:47;16.50;65.10
70820;DHT22;58439;51.046;13.692;2023-04-24T08:09:15;16.60;63.50
70820;DHT22;58439;51.046;13.692;2023-04-24T08:11:42;16.70;61.30
70820;DHT22;58439;51.046;13.692;2023-04-24T08:14:10;16.70;61.20
70820;DHT22;58439;51.046;13.692;2023-04-24T08:16:39;16.90;60.60
70820;DHT22;58439;51.046;13.692;2023-04-24T08:19:07;17.10;58.90
70820;DHT22;58439;51.046;13.692;2023-04-24T08:21:34;17.20;58.20
70820;DHT22;58439;51.046;13.692;2023-04-24T08:24:01;17.20;55.20
70820;DHT22;58439;51.046;13.692;2023-04-24T08:26:31;17.20;54.80
70820;DHT22;58439;51.046;13.692;2023-04-24T08:28:58;17.20;54.80
70820;DHT22;58439;51.046;13.692;2023-04-24T08:31:25;17.20;55.20
70820;DHT22;58439;51.046;13.692;2023-04-24T08:33:53;17.30;53.20
70820;DHT22;58439;51.046;13.692;2023-04-24T08:36:21;17.20;53.10
70820;DHT22;58439;51.046;13.692;2023-04-24T08:38:52;17.30;54.00
70820;DHT22;58439;51.046;13.692;2023-04-24T08:41:19;17.40;54.70
70820;DHT22;58439;51.046;13.692;2023-04-24T08:43:48;17.40;55.30
70820;DHT22;58439;51.046;13.692;2023-04-24T08:46:15;17.40;53.90
70820;DHT22;58439;51.046;13.692;2023-04-24T08:48:43;17.40;53.70
70820;DHT22;58439;51.046;13.692;2023-04-24T08:51:11;17.40;53.70
70820;DHT22;58439;51.046;13.692;2023-04-24T08:53:39;17.40;54.00
70820;DHT22;58439;51.046;13.692;2023-04-24T08:56:06;17.40;53.10
70820;DHT22;58439;51.046;13.692;2023-04-24T08:58:35;17.40;50.90
70820;DHT22;58439;51.046;13.692;2023-04-24T09:01:03;17.30;50.60
70820;DHT22;58439;51.046;13.692;2023-04-24T09:03:31;17.20;50.20
70820;DHT22;58439;51.046;13.692;2023-04-24T09:06:01;17.30;50.20
70820;DHT22;58439;51.046;13.692;2023-04-24T09:08:29;17.40;48.00
70820;DHT22;58439;51.046;13.692;2023-04-24T09:10:57;17.60;46.00
70820;DHT22;58439;51.046;13.692;2023-04-24T09:13:26;17.60;44.50
70820;DHT22;58439;51.046;13.692;2023-04-24T09:15:53;17.60;44.80
70820;DHT22;58439;51.046;13.692;2023-04-24T09:18:21;17.50;45.40
70820;DHT22;58439;51.046;13.692;2023-04-24T09:21:07;17.50;45.00
70820;DHT22;58439;51.046;13.692;2023-04-24T09:23:35;17.40;45.10
70820;DHT22;58439;51.046;13.692;2023-04-24T09:26:03;17.50;45.10
70820;DHT22;58439;51.046;13.692;2023-04-24T09:28:40;17.60;44.90
70820;DHT22;58439;51.046;13.692;2023-04-24T09:33:39;17.60;45.70
70820;DHT22;58439;51.046;13.692;2023-04-24T09:36:09;17.50;44.90
70820;DHT22;58439;51.046;13.692;2023-04-24T09:38:37;17.50;45.10
70820;DHT22;58439;51.046;13.692;2023-04-24T09:41:08;17.60;45.70
70820;DHT22;58439;51.046;13.692;2023-04-24T09:43:40;17.70;45.60
70820;DHT22;58439;51.046;13.692;2023-04-24T09:46:08;17.70;44.40
70820;DHT22;58439;51.046;13.692;2023-04-24T09:48:37;17.70;44.60
70820;DHT22;58439;51.046;13.692;2023-04-24T09:51:06;17.70;44.00
70820;DHT22;58439;51.046;13.692;2023-04-24T09:53:40;17.70;44.40
70820;DHT22;58439;51.046;13.692;2023-04-24T09:56:14;17.90;44.10
70820;DHT22;58439;51.046;13.692;2023-04-24T09:58:41;18.00;44.00
70820;DHT22;58439;51.046;13.692;2023-04-24T10:01:09;18.10;43.10
70820;DHT22;58439;51.046;13.692;2023-04-24T10:03:36;18.00;42.70
70820;DHT22;58439;51.046;13.692;2023-04-24T10:06:04;17.70;44.00
70820;DHT22;58439;51.046;13.692;2023-04-24T10:08:36;17.60;43.30
70820;DHT22;58439;51.046;13.692;2023-04-24T10:11:04;17.60;43.80
70820;DHT22;58439;51.046;13.692;2023-04-24T10:13:32;17.70;43.90
70820;DHT22;58439;51.046;13.692;2023-04-24T10:16:00;17.80;43.30
70820;DHT22;58439;51.046;13.692;2023-04-24T10:18:29;17.90;43.00
70820;DHT22;58439;51.046;13.692;2023-04-24T10:20:57;17.90;42.80
70820;DHT22;58439;51.046;13.692;2023-04-24T10:23:28;17.90;42.20
70820;DHT22;58439;51.046;13.692;2023-04-24T10:25:56;17.90;42.10
70820;DHT22;58439;51.046;13.692;2023-04-24T10:28:24;18.00;42.10
70820;DHT22;58439;51.046;13.692;2023-04-24T10:30:54;18.40;41.00
70820;DHT22;58439;51.046;13.692;2023-04-24T10:33:25;18.70;40.30
70820;DHT22;58439;51.046;13.692;2023-04-24T10:35:53;18.90;40.20
70820;DHT22;58439;51.046;13.692;2023-04-24T10:38:24;19.10;39.90
70820;DHT22;58439;51.046;13.692;2023-04-24T10:41:12;19.30;39.40
70820;DHT22;58439;51.046;13.692;2023-04-24T10:43:46;19.00;38.90
70820;DHT22;58439;51.046;13.692;2023-04-24T10:46:21;18.80;39.50
70820;DHT22;58439;51.046;13.692;2023-04-24T10:48:54;18.70;40.00
70820;DHT22;58439;51.046;13.692;2023-04-24T10:51:24;18.60;40.30
70820;DHT22;58439;51.046;13.692;2023-04-24T10:54:34;18.50;40.80
70820;DHT22;58439;51.046;13.692;2023-04-24T10:57:28;18.70;41.00
70820;DHT22;58439;51.046;13.692;2023-04-24T11:00:24;18.90;40.70
70820;DHT22;58439;51.046;13.692;2023-04-24T11:02:54;18.60;40.10
70820;DHT22;58439;51.046;13.692;2023-04-24T11:05:22;18.30;42.00
70820;DHT22;58439;51.046;13.692;2023-04-24T11:08:14;18.10;41.60
70820;DHT22;58439;51.046;13.692;2023-04-24T11:11:03;17.90;42.10
70820;DHT22;58439;51.046;13.692;2023-04-24T11:16:31;17.40;43.60
70820;DHT22;58439;51.046;13.692;2023-04-24T11:21:44;17.10;44.80
70820;DHT22;58439;51.046;13.692;2023-04-24T11:27:21;17.20;45.80
70820;DHT22;58439;51.046;13.692;2023-04-24T11:29:59;17.30;45.20
70820;DHT22;58439;51.046;13.692;2023-04-24T11:32:40;17.50;45.00
70820;DHT22;58439;51.046;13.692;2023-04-24T11:35:15;17.80;44.00
70820;DHT22;58439;51.046;13.692;2023-04-24T11:37:49;18.50;43.10
70820;DHT22;58439;51.046;13.692;2023-04-24T11:40:21;19.40;41.20
70820;DHT22;58439;51.046;13.692;2023-04-24T11:42:53;20.30;39.20
70820;DHT22;58439;51.046;13.692;2023-04-24T11:45:26;21.10;35.70
70820;DHT22;58439;51.046;13.692;2023-04-24T11:47:54;21.00;34.40
70820;DHT22;58439;51.046;13.692;2023-04-24T11:50:25;21.00;35.20
70820;DHT22;58439;51.046;13.692;2023-04-24T11:52:54;20.90;34.50
70820;DHT22;58439;51.046;13.692;2023-04-24T11:55:24;20.50;34.60
70820;DHT22;58439;51.046;13.692;2023-04-24T11:57:55;20.00;35.80
70820;DHT22;58439;51.046;13.692;2023-04-24T12:00:25;19.90;37.00
70820;DHT22;58439;51.046;13.692;2023-04-24T12:03:05;19.90;37.10
70820;DHT22;58439;51.046;13.692;2023-04-24T12:05:34;19.90;36.10
70820;DHT22;58439;51.046;13.692;2023-04-24T12:08:03;19.20;36.70
70820;DHT22;58439;51.046;13.692;2023-04-24T12:10:32;18.60;38.10
70820;DHT22;58439;51.046;13.692;2023-04-24T12:13:03;18.20;38.90
70820;DHT22;58439;51.046;13.692;2023-04-24T12:15:31;17.80;38.90
70820;DHT22;58439;51.046;13.692;2023-04-24T12:17:58;17.60;39.20
70820;DHT22;58439;51.046;13.692;2023-04-24T12:20:32;17.40;40.10
70820;DHT22;58439;51.046;13.692;2023-04-24T12:23:01;17.30;38.10
70820;DHT22;58439;51.046;13.692;2023-04-24T12:25:32;17.10;38.10
70820;DHT22;58439;51.046;13.692;2023-04-24T12:30:38;17.20;37.50
70820;DHT22;58439;51.046;13.692;2023-04-24T12:33:20;17.80;37.20
70820;DHT22;58439;51.046;13.692;2023-04-24T12:35:51;19.30;35.50
70820;DHT22;58439;51.046;13.692;2023-04-24T12:38:23;20.70;31.30
70820;DHT22;58439;51.046;13.692;2023-04-24T12:41:25;20.90;29.30
70820;DHT22;58439;51.046;13.692;2023-04-24T12:43:53;20.30;30.00
70820;DHT22;58439;51.046;13.692;2023-04-24T12:46:21;20.00;30.70
70820;DHT22;58439;51.046;13.692;2023-04-24T12:48:49;20.10;31.20
70820;DHT22;58439;51.046;13.692;2023-04-24T12:51:17;20.00;31.10
70820;DHT22;58439;51.046;13.692;2023-04-24T12:53:44;19.70;31.80
70820;DHT22;58439;51.046;13.692;2023-04-24T12:56:11;19.30;31.70
70820;DHT22;58439;51.046;13.692;2023-04-24T12:58:38;19.00;32.00
70820;DHT22;58439;51.046;13.692;2023-04-24T13:01:05;18.90;32.20
70820;DHT22;58439;51.046;13.692;2023-04-24T13:03:33;19.00;32.70
70820;DHT22;58439;51.046;13.692;2023-04-24T13:06:00;19.00;32.00
70820;DHT22;58439;51.046;13.692;2023-04-24T13:08:27;19.50;32.10
70820;DHT22;58439;51.046;13.692;2023-04-24T13:10:55;20.80;29.30
70820;DHT22;58439;51.046;13.692;2023-04-24T13:13:22;21.60;27.60
70820;DHT22;58439;51.046;13.692;2023-04-24T13:15:49;21.90;26.10
70820;DHT22;58439;51.046;13.692;2023-04-24T13:18:17;22.30;25.40
70820;DHT22;58439;51.046;13.692;2023-04-24T13:20:44;22.80;24.70
70820;DHT22;58439;51.046;13.692;2023-04-24T13:23:14;23.40;24.60
70820;DHT22;58439;51.046;13.692;2023-04-24T13:25:42;23.70;23.70
70820;DHT22;58439;51.046;13.692;2023-04-24T13:28:09;23.50;24.00
70820;DHT22;58439;51.046;13.692;2023-04-24T13:30:36;23.20;24.70
70820;DHT22;58439;51.046;13.692;2023-04-24T13:33:04;23.00;24.50
70820;DHT22;58439;51.046;13.692;2023-04-24T13:35:32;23.30;23.50
70820;DHT22;58439;51.046;13.692;2023-04-24T13:37:59;23.40;24.30
70820;DHT22;58439;51.046;13.692;2023-04-24T13:40:28;23.40;22.40
70820;DHT22;58439;51.046;13.692;2023-04-24T13:42:55;23.60;21.10
70820;DHT22;58439;51.046;13.692;2023-04-24T13:45:22;23.70;21.10
70820;DHT22;58439;51.046;13.692;2023-04-24T13:47:52;23.70;21.40
70820;DHT22;58439;51.046;13.692;2023-04-24T13:50:21;22.90;21.70
70820;DHT22;58439;51.046;13.692;2023-04-24T13:52:48;21.60;22.90
70820;DHT22;58439;51.046;13.692;2023-04-24T13:55:16;20.80;23.90
70820;DHT22;58439;51.046;13.692;2023-04-24T13:57:43;20.80;24.30
70820;DHT22;58439;51.046;13.692;2023-04-24T14:00:11;21.00;24.30
70820;DHT22;58439;51.046;13.692;2023-04-24T14:02:41;21.20;24.20
70820;DHT22;58439;51.046;13.692;2023-04-24T14:05:09;21.70;23.60
70820;DHT22;58439;51.046;13.692;2023-04-24T14:07:49;22.30;23.20
70820;DHT22;58439;51.046;13.692;2023-04-24T14:10:23;22.60;22.70
70820;DHT22;58439;51.046;13.692;2023-04-24T14:12:54;22.40;23.00
70820;DHT22;58439;51.046;13.692;2023-04-24T14:15:45;22.60;23.30
70820;DHT22;58439;51.046;13.692;2023-04-24T14:18:24;22.80;23.00
70820;DHT22;58439;51.046;13.692;2023-04-24T14:20:51;23.20;22.40
70820;DHT22;58439;51.046;13.692;2023-04-24T14:23:19;23.50;22.20
70820;DHT22;58439;51.046;13.692;2023-04-24T14:25:46;23.80;22.10
70820;DHT22;58439;51.046;13.692;2023-04-24T14:28:19;23.90;21.80
70820;DHT22;58439;51.046;13.692;2023-04-24T14:30:47;24.20;21.80
70820;DHT22;58439;51.046;13.692;2023-04-24T14:33:14;24.60;20.70
70820;DHT22;58439;51.046;13.692;2023-04-24T14:35:42;24.50;20.60
70820;DHT22;58439;51.046;13.692;2023-04-24T14:38:10;23.90;21.20
70820;DHT22;58439;51.046;13.692;2023-04-24T14:40:40;23.40;21.80
70820;DHT22;58439;51.046;13.692;2023-04-24T14:43:10;23.00;22.10
70820;DHT22;58439;51.046;13.692;2023-04-24T14:45:37;22.90;22.40
70820;DHT22;58439;51.046;13.692;2023-04-24T14:48:05;22.90;22.80
70820;DHT22;58439;51.046;13.692;2023-04-24T14:50:32;22.90;21.90
70820;DHT22;58439;51.046;13.692;2023-04-24T14:52:59;22.70;21.90
70820;DHT22;58439;51.046;13.692;2023-04-24T14:55:28;22.70;21.90
70820;DHT22;58439;51.046;13.692;2023-04-24T14:57:56;22.50;22.40
70820;DHT22;58439;51.046;13.692;2023-04-24T15:00:23;22.40;22.50
70820;DHT22;58439;51.046;13.692;2023-04-24T15:02:50;22.20;22.60
70820;DHT22;58439;51.046;13.692;2023-04-24T15:05:18;22.00;22.90
70820;DHT22;58439;51.046;13.692;2023-04-24T15:07:46;22.10;22.80
70820;DHT22;58439;51.046;13.692;2023-04-24T15:10:13;22.10;22.30
70820;DHT22;58439;51.046;13.692;2023-04-24T15:12:40;22.20;22.50
70820;DHT22;58439;51.046;13.692;2023-04-24T15:15:08;22.40;22.10
70820;DHT22;58439;51.046;13.692;2023-04-24T15:17:35;22.40;21.70
70820;DHT22;58439;51.046;13.692;2023-04-24T15:20:05;22.00;21.80
70820;DHT22;58439;51.046;13.692;2023-04-24T15:22:34;21.50;22.40
70820;DHT22;58439;51.046;13.692;2023-04-24T15:25:02;20.90;23.00
70820;DHT22;58439;51.046;13.692;2023-04-24T15:27:42;20.40;23.60
70820;DHT22;58439;51.046;13.692;2023-04-24T15:30:11;19.80;24.60
70820;DHT22;58439;51.046;13.692;2023-04-24T15:32:39;19.40;25.10
70820;DHT22;58439;51.046;13.692;2023-04-24T15:35:07;19.10;25.50
70820;DHT22;58439;51.046;13.692;2023-04-24T15:37:37;18.80;26.00
70820;DHT22;58439;51.046;13.692;2023-04-24T15:40:06;18.60;26.70
70820;DHT22;58439;51.046;13.692;2023-04-24T15:42:34;18.50;27.00
70820;DHT22;58439;51.046;13.692;2023-04-24T15:45:02;18.50;27.30
70820;DHT22;58439;51.046;13.692;2023-04-24T15:47:31;18.50;27.20
70820;DHT22;58439;51.046;13.692;2023-04-24T15:49:58;18.40;27.40
70820;DHT22;58439;51.046;13.692;2023-04-24T15:52:26;18.10;27.90
70820;DHT22;58439;51.046;13.692;2023-04-24T15:54:53;18.00;28.50
70820;DHT22;58439;51.046;13.692;2023-04-24T15:57:20;17.80;28.70
70820;DHT22;58439;51.046;13.692;2023-04-24T15:59:47;17.50;29.40
70820;DHT22;58439;51.046;13.692;2023-04-24T16:02:15;17.10;30.00
70820;DHT22;58439;51.046;13.692;2023-04-24T16:04:48;16.90;30.70
70820;DHT22;58439;51.046;13.692;2023-04-24T16:07:17;16.80;31.60
70820;DHT22;58439;51.046;13.692;2023-04-24T16:09:44;16.70;32.00
70820;DHT22;58439;51.046;13.692;2023-04-24T16:12:11;16.70;32.20
70820;DHT22;58439;51.046;13.692;2023-04-24T16:14:39;16.80;32.40
70820;DHT22;58439;51.046;13.692;2023-04-24T16:17:06;17.00;32.30
70820;DHT22;58439;51.046;13.692;2023-04-24T16:19:33;17.10;31.70
70820;DHT22;58439;51.046;13.692;2023-04-24T16:22:01;17.00;31.80
70820;DHT22;58439;51.046;13.692;2023-04-24T16:24:29;17.00;32.00
70820;DHT22;58439;51.046;13.692;2023-04-24T16:26:56;16.90;31.30